sensor_id;sensor_type;location;lat;lon;timestamp;pressure;altitude;pressure_sealevel;temperature;humidity
30967;BME280;17649;51.836;8.330;2023-02-18T00:00:19;101530.00;;;10.44;100.00
30967;BME280;17649;51.836;8.330;2023-02-18T00:03:19;101523.91;;;10.45;100.00
30967;BME280;17649;51.836;8.330;2023-02-18T00:06:21;101526.56;;;10.44;100.00
30967;BME280;17649;51.836;8.330;2023-02-18T00:09:21;101534.00;;;10.52;100.00
30967;BME280;17649;51.836;8.330;2023-02-18T00:12:21;101525.66;;;10.45;100.00
30967;BME280;17649;51.836;8.330;2023-02-18T00:15:22;101527.03;;;10.54;100.00
30967;BME280;17649;51.836;8.330;2023-02-18T00:18:22;101518.41;;;10.53;100.00
30967;BME280;17649;51.836;8.330;2023-02-18T00:21:22;101534.56;;;10.60;100.00
30967;BME280;17649;51.836;8.330;2023-02-18T00:24:23;101526.72;;;10.61;100.00
30967;BME280;17649;51.836;8.330;2023-02-18T00:27:23;101521.22;;;10.69;100.00
30967;BME280;17649;51.836;8.330;2023-02-18T00:30:23;101519.72;;;10.63;100.00
30967;BME280;17649;51.836;8.330;2023-02-18T00:33:23;101524.53;;;10.72;100.00
30967;BME280;17649;51.836;8.330;2023-02-18T00:36:24;101513.44;;;10.69;100.00
30967;BME280;17649;51.836;8.330;2023-02-18T00:39:25;101510.63;;;10.75;100.00
30967;BME280;17649;51.836;8.330;2023-02-18T00:42:25;101509.72;;;10.76;100.00
30967;BME280;17649;51.836;8.330;2023-02-18T00:45:25;101514.75;;;10.79;100.00
30967;BME280;17649;51.836;8.330;2023-02-18T00:48:25;101504.28;;;10.82;100.00
30967;BME280;17649;51.836;8.330;2023-02-18T00:51:26;101511.13;;;10.83;100.00
30967;BME280;17649;51.836;8.330;2023-02-18T00:54:26;101510.63;;;10.95;100.00
30967;BME280;17649;51.836;8.330;2023-02-18T00:57:26;101511.66;;;10.91;100.00
30967;BME280;17649;51.836;8.330;2023-02-18T01:00:26;101515.66;;;10.98;100.00
30967;BME280;17649;51.836;8.330;2023-02-18T01:03:26;101509.00;;;10.93;100.00
30967;BME280;17649;51.836;8.330;2023-02-18T01:06:27;101497.19;;;10.87;100.00
30967;BME280;17649;51.836;8.330;2023-02-18T01:09:27;101502.91;;;10.94;100.00
30967;BME280;17649;51.836;8.330;2023-02-18T01:12:27;101489.75;;;10.98;100.00
30967;BME280;17649;51.836;8.330;2023-02-18T01:15:28;101492.13;;;11.04;100.00
30967;BME280;17649;51.836;8.330;2023-02-18T01:18:28;101496.25;;;11.09;100.00
30967;BME280;17649;51.836;8.330;2023-02-18T01:21:29;101495.84;;;11.18;100.00
30967;BME280;17649;51.836;8.330;2023-02-18T01:24:29;101494.94;;;11.19;100.00
30967;BME280;17649;51.836;8.330;2023-02-18T01:27:29;101488.00;;;11.19;100.00
30967;BME280;17649;51.836;8.330;2023-02-18T01:30:29;101500.22;;;11.16;100.00
30967;BME280;17649;51.836;8.330;2023-02-18T01:33:30;101494.63;;;11.06;100.00
30967;BME280;17649;51.836;8.330;2023-02-18T01:36:30;101490.75;;;11.16;100.00
30967;BME280;17649;51.836;8.330;2023-02-18T01:39:30;101484.38;;;11.23;100.00
30967;BME280;17649;51.836;8.330;2023-02-18T01:42:30;101487.28;;;11.16;100.00
30967;BME280;17649;51.836;8.330;2023-02-18T01:51:38;101471.75;;;11.16;100.00
30967;BME280;17649;51.836;8.330;2023-02-18T01:54:41;101472.41;;;11.21;100.00
30967;BME280;17649;51.836;8.330;2023-02-18T01:57:43;101468.19;;;11.18;100.00
30967;BME280;17649;51.836;8.330;2023-02-18T02:00:43;101469.66;;;11.24;100.00
30967;BME280;17649;51.836;8.330;2023-02-18T02:03:43;101454.50;;;11.35;100.00
30967;BME280;17649;51.836;8.330;2023-02-18T02:06:44;101460.00;;;11.27;100.00
30967;BME280;17649;51.836;8.330;2023-02-18T02:09:44;101450.63;;;11.25;100.00
30967;BME280;17649;51.836;8.330;2023-02-18T02:16:05;101438.19;;;11.33;100.00
30967;BME280;17649;51.836;8.330;2023-02-18T02:35:24;101419.06;;;11.35;100.00
30967;BME280;17649;51.836;8.330;2023-02-18T02:41:35;101398.72;;;11.45;100.00
30967;BME280;17649;51.836;8.330;2023-02-18T02:44:41;101398.88;;;11.42;100.00
30967;BME280;17649;51.836;8.330;2023-02-18T02:47:48;101396.50;;;11.38;100.00
30967;BME280;17649;51.836;8.330;2023-02-18T02:50:52;101393.28;;;11.14;100.00
30967;BME280;17649;51.836;8.330;2023-02-18T02:53:54;101389.38;;;11.24;100.00
30967;BME280;17649;51.836;8.330;2023-02-18T03:00:17;101375.84;;;11.17;100.00
30967;BME280;17649;51.836;8.330;2023-02-18T03:22:07;101353.72;;;11.29;100.00
30967;BME280;17649;51.836;8.330;2023-02-18T03:25:10;101334.03;;;11.25;100.00
30967;BME280;17649;51.836;8.330;2023-02-18T03:28:12;101347.56;;;11.31;100.00
30967;BME280;17649;51.836;8.330;2023-02-18T03:31:15;101339.38;;;11.22;100.00
30967;BME280;17649;51.836;8.330;2023-02-18T03:34:19;101341.81;;;11.25;100.00
30967;BME280;17649;51.836;8.330;2023-02-18T03:37:22;101330.25;;;11.13;100.00
30967;BME280;17649;51.836;8.330;2023-02-18T03:40:22;101318.66;;;11.22;100.00
30967;BME280;17649;51.836;8.330;2023-02-18T03:43:23;101317.75;;;11.23;100.00
30967;BME280;17649;51.836;8.330;2023-02-18T03:46:23;101310.31;;;11.15;100.00
30967;BME280;17649;51.836;8.330;2023-02-18T03:49:23;101308.28;;;11.22;100.00
30967;BME280;17649;51.836;8.330;2023-02-18T03:52:24;101302.03;;;11.26;100.00
30967;BME280;17649;51.836;8.330;2023-02-18T03:55:24;101302.69;;;11.31;100.00
30967;BME280;17649;51.836;8.330;2023-02-18T03:58:24;101293.63;;;11.40;100.00
30967;BME280;17649;51.836;8.330;2023-02-18T04:01:24;101298.97;;;11.37;100.00
30967;BME280;17649;51.836;8.330;2023-02-18T04:04:25;101299.78;;;11.37;100.00
30967;BME280;17649;51.836;8.330;2023-02-18T04:07:25;101289.97;;;11.08;100.00
30967;BME280;17649;51.836;8.330;2023-02-18T04:10:25;101286.88;;;11.18;100.00
30967;BME280;17649;51.836;8.330;2023-02-18T04:13:26;101283.97;;;11.24;100.00
30967;BME280;17649;51.836;8.330;2023-02-18T04:16:26;101285.41;;;11.13;100.00
30967;BME280;17649;51.836;8.330;2023-02-18T04:19:27;101271.38;;;11.35;100.00
30967;BME280;17649;51.836;8.330;2023-02-18T04:22:27;101276.28;;;11.23;100.00
30967;BME280;17649;51.836;8.330;2023-02-18T04:25:27;101269.28;;;11.25;100.00
30967;BME280;17649;51.836;8.330;2023-02-18T04:28:27;101269.59;;;11.19;100.00
30967;BME280;17649;51.836;8.330;2023-02-18T04:31:28;101265.94;;;11.23;100.00
30967;BME280;17649;51.836;8.330;2023-02-18T04:34:28;101253.88;;;11.22;100.00
30967;BME280;17649;51.836;8.330;2023-02-18T04:37:28;101248.47;;;11.26;100.00
30967;BME280;17649;51.836;8.330;2023-02-18T04:40:28;101241.09;;;11.19;100.00
30967;BME280;17649;51.836;8.330;2023-02-18T04:43:31;101250.09;;;11.29;100.00
30967;BME280;17649;51.836;8.330;2023-02-18T04:46:31;101242.09;;;11.16;100.00
30967;BME280;17649;51.836;8.330;2023-02-18T04:49:34;101238.00;;;11.11;100.00
30967;BME280;17649;51.836;8.330;2023-02-18T04:52:37;101234.47;;;11.30;100.00
30967;BME280;17649;51.836;8.330;2023-02-18T04:55:38;101230.25;;;11.11;100.00
30967;BME280;17649;51.836;8.330;2023-02-18T04:58:43;101220.66;;;11.30;100.00
30967;BME280;17649;51.836;8.330;2023-02-18T05:01:49;101231.34;;;11.24;100.00
30967;BME280;17649;51.836;8.330;2023-02-18T05:04:55;101226.19;;;11.41;100.00
30967;BME280;17649;51.836;8.330;2023-02-18T05:07:55;101218.41;;;11.41;100.00
30967;BME280;17649;51.836;8.330;2023-02-18T05:10:56;101222.22;;;11.34;100.00
30967;BME280;17649;51.836;8.330;2023-02-18T05:13:56;101221.91;;;11.40;100.00
30967;BME280;17649;51.836;8.330;2023-02-18T05:17:00;101225.84;;;11.30;100.00
30967;BME280;17649;51.836;8.330;2023-02-18T05:23:37;101204.28;;;11.29;100.00
30967;BME280;17649;51.836;8.330;2023-02-18T05:26:40;101201.94;;;11.25;100.00
30967;BME280;17649;51.836;8.330;2023-02-18T05:29:41;101194.91;;;11.27;100.00
30967;BME280;17649;51.836;8.330;2023-02-18T05:32:43;101196.31;;;11.34;100.00
30967;BME280;17649;51.836;8.330;2023-02-18T05:35:43;101196.91;;;11.39;100.00
30967;BME280;17649;51.836;8.330;2023-02-18T05:38:44;101177.19;;;11.19;100.00
30967;BME280;17649;51.836;8.330;2023-02-18T05:41:44;101171.53;;;11.28;100.00
30967;BME280;17649;51.836;8.330;2023-02-18T05:44:44;101168.78;;;11.14;100.00
30967;BME280;17649;51.836;8.330;2023-02-18T05:47:44;101162.31;;;11.23;100.00
30967;BME280;17649;51.836;8.330;2023-02-18T05:50:45;101162.00;;;11.29;100.00
30967;BME280;17649;51.836;8.330;2023-02-18T05:53:45;101158.38;;;11.33;100.00
30967;BME280;17649;51.836;8.330;2023-02-18T05:56:45;101152.47;;;11.29;100.00
30967;BME280;17649;51.836;8.330;2023-02-18T05:59:45;101147.00;;;11.35;100.00
30967;BME280;17649;51.836;8.330;2023-02-18T06:02:46;101134.88;;;11.36;100.00
30967;BME280;17649;51.836;8.330;2023-02-18T06:05:49;101128.19;;;11.49;100.00
30967;BME280;17649;51.836;8.330;2023-02-18T06:08:50;101130.06;;;11.28;100.00
30967;BME280;17649;51.836;8.330;2023-02-18T06:11:50;101120.94;;;11.39;100.00
30967;BME280;17649;51.836;8.330;2023-02-18T06:14:50;101118.03;;;11.27;100.00
30967;BME280;17649;51.836;8.330;2023-02-18T06:17:51;101110.28;;;11.27;100.00
30967;BME280;17649;51.836;8.330;2023-02-18T06:20:51;101115.16;;;11.33;100.00
30967;BME280;17649;51.836;8.330;2023-02-18T06:23:51;101104.41;;;11.24;100.00
30967;BME280;17649;51.836;8.330;2023-02-18T06:26:52;101099.06;;;11.10;100.00
30967;BME280;17649;51.836;8.330;2023-02-18T06:29:52;101103.41;;;11.09;100.00
30967;BME280;17649;51.836;8.330;2023-02-18T06:32:52;101098.56;;;11.20;100.00
30967;BME280;17649;51.836;8.330;2023-02-18T06:36:02;101097.25;;;11.12;100.00
30967;BME280;17649;51.836;8.330;2023-02-18T06:39:03;101115.38;;;11.12;100.00
30967;BME280;17649;51.836;8.330;2023-02-18T06:42:04;101100.75;;;11.11;100.00
30967;BME280;17649;51.836;8.330;2023-02-18T06:45:04;101115.22;;;11.15;100.00
30967;BME280;17649;51.836;8.330;2023-02-18T06:48:05;101116.13;;;11.14;100.00
30967;BME280;17649;51.836;8.330;2023-02-18T06:51:06;101109.91;;;11.18;100.00
30967;BME280;17649;51.836;8.330;2023-02-18T06:54:06;101104.72;;;11.18;100.00
30967;BME280;17649;51.836;8.330;2023-02-18T06:57:06;101104.50;;;11.22;100.00
30967;BME280;17649;51.836;8.330;2023-02-18T07:00:07;101097.88;;;11.17;100.00
30967;BME280;17649;51.836;8.330;2023-02-18T07:03:07;101095.50;;;11.12;100.00
30967;BME280;17649;51.836;8.330;2023-02-18T07:06:10;101105.78;;;11.14;100.00
30967;BME280;17649;51.836;8.330;2023-02-18T07:09:10;101101.06;;;11.22;100.00
30967;BME280;17649;51.836;8.330;2023-02-18T07:12:10;101091.84;;;11.16;100.00
30967;BME280;17649;51.836;8.330;2023-02-18T07:15:10;101093.28;;;11.22;100.00
30967;BME280;17649;51.836;8.330;2023-02-18T07:18:10;101086.59;;;11.18;100.00
30967;BME280;17649;51.836;8.330;2023-02-18T07:21:11;101084.69;;;11.21;100.00
30967;BME280;17649;51.836;8.330;2023-02-18T07:24:11;101086.78;;;11.30;100.00
30967;BME280;17649;51.836;8.330;2023-02-18T07:27:11;101084.38;;;11.10;100.00
30967;BME280;17649;51.836;8.330;2023-02-18T07:30:12;101079.50;;;11.21;100.00
30967;BME280;17649;51.836;8.330;2023-02-18T07:33:12;101076.44;;;10.96;100.00
30967;BME280;17649;51.836;8.330;2023-02-18T07:36:13;101082.69;;;11.09;100.00
30967;BME280;17649;51.836;8.330;2023-02-18T07:39:13;101085.22;;;11.11;100.00
30967;BME280;17649;51.836;8.330;2023-02-18T07:42:13;101087.56;;;11.15;100.00
30967;BME280;17649;51.836;8.330;2023-02-18T07:45:14;101073.00;;;11.13;100.00
30967;BME280;17649;51.836;8.330;2023-02-18T07:48:14;101070.50;;;11.28;100.00
30967;BME280;17649;51.836;8.330;2023-02-18T07:51:15;101061.66;;;11.15;100.00
30967;BME280;17649;51.836;8.330;2023-02-18T07:54:15;101081.25;;;11.03;100.00
30967;BME280;17649;51.836;8.330;2023-02-18T07:57:15;101080.34;;;11.22;100.00
30967;BME280;17649;51.836;8.330;2023-02-18T08:00:16;101074.19;;;11.07;100.00
30967;BME280;17649;51.836;8.330;2023-02-18T08:03:16;101080.50;;;11.19;100.00
30967;BME280;17649;51.836;8.330;2023-02-18T08:06:22;101088.47;;;10.97;100.00
30967;BME280;17649;51.836;8.330;2023-02-18T08:09:24;101075.94;;;11.07;100.00
30967;BME280;17649;51.836;8.330;2023-02-18T08:12:27;101077.28;;;11.14;100.00
30967;BME280;17649;51.836;8.330;2023-02-18T08:15:27;101084.00;;;11.18;100.00
30967;BME280;17649;51.836;8.330;2023-02-18T08:18:27;101070.72;;;11.24;100.00
30967;BME280;17649;51.836;8.330;2023-02-18T08:21:28;101073.47;;;11.21;100.00
30967;BME280;17649;51.836;8.330;2023-02-18T08:24:28;101081.94;;;11.24;100.00
30967;BME280;17649;51.836;8.330;2023-02-18T08:27:28;101073.00;;;11.30;100.00
30967;BME280;17649;51.836;8.330;2023-02-18T08:30:29;101066.94;;;11.31;100.00
30967;BME280;17649;51.836;8.330;2023-02-18T08:33:30;101071.31;;;11.29;100.00
30967;BME280;17649;51.836;8.330;2023-02-18T08:36:30;101080.09;;;11.26;100.00
30967;BME280;17649;51.836;8.330;2023-02-18T08:39:35;101076.22;;;11.35;100.00
30967;BME280;17649;51.836;8.330;2023-02-18T08:42:35;101076.66;;;11.26;100.00
30967;BME280;17649;51.836;8.330;2023-02-18T08:45:40;101063.78;;;11.42;100.00
30967;BME280;17649;51.836;8.330;2023-02-18T08:48:41;101086.94;;;11.27;100.00
30967;BME280;17649;51.836;8.330;2023-02-18T08:51:41;101079.66;;;11.35;100.00
30967;BME280;17649;51.836;8.330;2023-02-18T08:54:42;101075.38;;;11.34;100.00
30967;BME280;17649;51.836;8.330;2023-02-18T08:57:42;101082.34;;;11.17;100.00
30967;BME280;17649;51.836;8.330;2023-02-18T09:00:43;101078.06;;;11.33;100.00
30967;BME280;17649;51.836;8.330;2023-02-18T09:03:44;101073.41;;;11.22;100.00
30967;BME280;17649;51.836;8.330;2023-02-18T09:06:44;101072.03;;;11.32;100.00
30967;BME280;17649;51.836;8.330;2023-02-18T09:09:45;101069.41;;;11.50;100.00
30967;BME280;17649;51.836;8.330;2023-02-18T09:12:46;101051.84;;;11.22;100.00
30967;BME280;17649;51.836;8.330;2023-02-18T09:15:55;101038.09;;;11.37;100.00
30967;BME280;17649;51.836;8.330;2023-02-18T09:18:56;101008.72;;;11.21;100.00
30967;BME280;17649;51.836;8.330;2023-02-18T09:21:57;101027.44;;;11.26;100.00
30967;BME280;17649;51.836;8.330;2023-02-18T09:24:58;101043.38;;;11.01;100.00
30967;BME280;17649;51.836;8.330;2023-02-18T09:27:58;101042.50;;;11.02;100.00
30967;BME280;17649;51.836;8.330;2023-02-18T09:31:06;101045.47;;;10.94;100.00
30967;BME280;17649;51.836;8.330;2023-02-18T09:34:07;101057.03;;;11.04;100.00
30967;BME280;17649;51.836;8.330;2023-02-18T09:37:07;101034.66;;;10.86;100.00
30967;BME280;17649;51.836;8.330;2023-02-18T09:40:23;101049.19;;;10.89;100.00
30967;BME280;17649;51.836;8.330;2023-02-18T09:43:29;101053.50;;;10.71;100.00
30967;BME280;17649;51.836;8.330;2023-02-18T09:46:38;101040.78;;;10.66;100.00
30967;BME280;17649;51.836;8.330;2023-02-18T09:49:43;101044.84;;;10.72;100.00
30967;BME280;17649;51.836;8.330;2023-02-18T09:52:47;101052.16;;;10.81;100.00
30967;BME280;17649;51.836;8.330;2023-02-18T09:55:48;101045.47;;;10.77;100.00
30967;BME280;17649;51.836;8.330;2023-02-18T09:58:51;101038.28;;;10.99;100.00
30967;BME280;17649;51.836;8.330;2023-02-18T10:01:53;101057.13;;;11.03;100.00
30967;BME280;17649;51.836;8.330;2023-02-18T10:04:58;101052.38;;;10.94;100.00
30967;BME280;17649;51.836;8.330;2023-02-18T10:08:20;101012.41;;;10.65;100.00
30967;BME280;17649;51.836;8.330;2023-02-18T10:11:29;101026.19;;;10.65;100.00
30967;BME280;17649;51.836;8.330;2023-02-18T10:14:55;101067.34;;;10.53;100.00
30967;BME280;17649;51.836;8.330;2023-02-18T10:17:59;101051.72;;;10.54;100.00
30967;BME280;17649;51.836;8.330;2023-02-18T10:21:14;101051.81;;;10.53;100.00
30967;BME280;17649;51.836;8.330;2023-02-18T10:24:34;101063.63;;;10.58;100.00
30967;BME280;17649;51.836;8.330;2023-02-18T10:27:37;101056.88;;;10.37;100.00
30967;BME280;17649;51.836;8.330;2023-02-18T10:30:51;101051.69;;;10.37;100.00
30967;BME280;17649;51.836;8.330;2023-02-18T10:40:58;101078.38;;;10.56;100.00
30967;BME280;17649;51.836;8.330;2023-02-18T10:44:16;101072.50;;;10.53;100.00
30967;BME280;17649;51.836;8.330;2023-02-18T10:50:41;101067.34;;;10.70;100.00
30967;BME280;17649;51.836;8.330;2023-02-18T10:53:48;101055.31;;;10.52;100.00
30967;BME280;17649;51.836;8.330;2023-02-18T10:56:51;101063.56;;;10.60;100.00
30967;BME280;17649;51.836;8.330;2023-02-18T11:03:15;101072.13;;;10.43;100.00
30967;BME280;17649;51.836;8.330;2023-02-18T11:06:21;101063.06;;;10.52;100.00
30967;BME280;17649;51.836;8.330;2023-02-18T11:12:42;101061.41;;;10.68;100.00
30967;BME280;17649;51.836;8.330;2023-02-18T11:15:59;101062.53;;;10.45;100.00
30967;BME280;17649;51.836;8.330;2023-02-18T11:19:02;101078.44;;;10.55;100.00
30967;BME280;17649;51.836;8.330;2023-02-18T11:22:14;101077.69;;;10.53;100.00
30967;BME280;17649;51.836;8.330;2023-02-18T11:25:22;101068.31;;;10.50;100.00
30967;BME280;17649;51.836;8.330;2023-02-18T11:28:30;101048.13;;;10.39;100.00
30967;BME280;17649;51.836;8.330;2023-02-18T11:31:43;101051.44;;;10.43;100.00
30967;BME280;17649;51.836;8.330;2023-02-18T11:34:52;101060.25;;;10.56;100.00
30967;BME280;17649;51.836;8.330;2023-02-18T11:37:55;101070.44;;;10.42;100.00
30967;BME280;17649;51.836;8.330;2023-02-18T11:41:05;101048.75;;;10.44;100.00
30967;BME280;17649;51.836;8.330;2023-02-18T11:44:18;101071.28;;;10.42;100.00
30967;BME280;17649;51.836;8.330;2023-02-18T11:50:22;101073.28;;;10.55;100.00
30967;BME280;17649;51.836;8.330;2023-02-18T11:53:27;101060.66;;;10.66;100.00
30967;BME280;17649;51.836;8.330;2023-02-18T11:56:34;101075.84;;;10.55;100.00
30967;BME280;17649;51.836;8.330;2023-02-18T11:59:37;101085.25;;;10.38;100.00
30967;BME280;17649;51.836;8.330;2023-02-18T12:02:39;101079.16;;;10.39;100.00
30967;BME280;17649;51.836;8.330;2023-02-18T12:05:41;101083.25;;;10.45;100.00
30967;BME280;17649;51.836;8.330;2023-02-18T12:08:50;101091.00;;;10.26;100.00
30967;BME280;17649;51.836;8.330;2023-02-18T12:11:54;101094.00;;;10.17;100.00
30967;BME280;17649;51.836;8.330;2023-02-18T12:14:58;101087.53;;;10.27;100.00
30967;BME280;17649;51.836;8.330;2023-02-18T12:21:05;101086.50;;;10.11;100.00
30967;BME280;17649;51.836;8.330;2023-02-18T12:34:50;101082.41;;;10.44;100.00
30967;BME280;17649;51.836;8.330;2023-02-18T13:01:48;101076.31;;;10.45;100.00
30967;BME280;17649;51.836;8.330;2023-02-18T13:05:07;101066.06;;;10.61;100.00
30967;BME280;17649;51.836;8.330;2023-02-18T13:08:33;101075.66;;;10.59;100.00
30967;BME280;17649;51.836;8.330;2023-02-18T13:12:10;101071.75;;;10.51;100.00
30967;BME280;17649;51.836;8.330;2023-02-18T13:15:24;101073.34;;;10.53;100.00
30967;BME280;17649;51.836;8.330;2023-02-18T13:18:43;101083.16;;;10.47;100.00
30967;BME280;17649;51.836;8.330;2023-02-18T13:22:13;101081.44;;;10.64;100.00
30967;BME280;17649;51.836;8.330;2023-02-18T13:25:12;101069.84;;;10.54;100.00
30967;BME280;17649;51.836;8.330;2023-02-18T13:31:54;101073.25;;;10.73;100.00
30967;BME280;17649;51.836;8.330;2023-02-18T13:35:26;101068.47;;;10.47;100.00
30967;BME280;17649;51.836;8.330;2023-02-18T13:38:55;101085.94;;;10.61;100.00
30967;BME280;17649;51.836;8.330;2023-02-18T13:45:32;101077.88;;;10.84;100.00
30967;BME280;17649;51.836;8.330;2023-02-18T13:48:46;101077.59;;;10.90;100.00
30967;BME280;17649;51.836;8.330;2023-02-18T13:51:54;101083.84;;;11.03;100.00
30967;BME280;17649;51.836;8.330;2023-02-18T13:54:55;101075.31;;;11.19;100.00
30967;BME280;17649;51.836;8.330;2023-02-18T13:57:58;101083.53;;;11.10;100.00
30967;BME280;17649;51.836;8.330;2023-02-18T14:08:14;101100.03;;;10.72;100.00
30967;BME280;17649;51.836;8.330;2023-02-18T14:17:33;101090.38;;;10.76;100.00
30967;BME280;17649;51.836;8.330;2023-02-18T14:23:43;101108.75;;;10.89;100.00
30967;BME280;17649;51.836;8.330;2023-02-18T14:26:48;101102.94;;;10.84;100.00
30967;BME280;17649;51.836;8.330;2023-02-18T14:29:50;101097.63;;;10.87;100.00
30967;BME280;17649;51.836;8.330;2023-02-18T14:32:55;101091.91;;;10.97;100.00
30967;BME280;17649;51.836;8.330;2023-02-18T14:40:19;101092.63;;;11.18;100.00
30967;BME280;17649;51.836;8.330;2023-02-18T14:49:51;101105.25;;;11.07;100.00
30967;BME280;17649;51.836;8.330;2023-02-18T14:52:57;101094.81;;;11.09;100.00
30967;BME280;17649;51.836;8.330;2023-02-18T14:56:02;101089.78;;;11.05;100.00
30967;BME280;17649;51.836;8.330;2023-02-18T14:59:05;101100.22;;;11.04;100.00
30967;BME280;17649;51.836;8.330;2023-02-18T15:02:24;101094.22;;;11.21;100.00
30967;BME280;17649;51.836;8.330;2023-02-18T15:05:28;101092.53;;;11.20;100.00
30967;BME280;17649;51.836;8.330;2023-02-18T15:08:36;101094.22;;;11.03;100.00
30967;BME280;17649;51.836;8.330;2023-02-18T15:11:42;101100.91;;;11.08;100.00
30967;BME280;17649;51.836;8.330;2023-02-18T15:14:45;101092.06;;;11.29;100.00
30967;BME280;17649;51.836;8.330;2023-02-18T15:17:48;101102.81;;;11.21;100.00
30967;BME280;17649;51.836;8.330;2023-02-18T15:20:48;101098.06;;;11.29;100.00
30967;BME280;17649;51.836;8.330;2023-02-18T15:23:52;101114.94;;;11.21;100.00
30967;BME280;17649;51.836;8.330;2023-02-18T15:26:55;101116.28;;;11.11;100.00
30967;BME280;17649;51.836;8.330;2023-02-18T15:33:42;101109.19;;;10.97;100.00
30967;BME280;17649;51.836;8.330;2023-02-18T15:36:49;101116.69;;;11.03;100.00
30967;BME280;17649;51.836;8.330;2023-02-18T15:39:51;101114.16;;;11.01;100.00
30967;BME280;17649;51.836;8.330;2023-02-18T15:42:59;101115.69;;;11.05;100.00
30967;BME280;17649;51.836;8.330;2023-02-18T15:46:11;101117.81;;;11.15;100.00
30967;BME280;17649;51.836;8.330;2023-02-18T15:49:19;101125.72;;;11.29;100.00
30967;BME280;17649;51.836;8.330;2023-02-18T15:52:33;101116.88;;;11.16;100.00
30967;BME280;17649;51.836;8.330;2023-02-18T15:55:45;101117.34;;;11.24;100.00
30967;BME280;17649;51.836;8.330;2023-02-18T15:58:46;101131.47;;;11.18;100.00
30967;BME280;17649;51.836;8.330;2023-02-18T16:01:53;101122.31;;;11.11;100.00
30967;BME280;17649;51.836;8.330;2023-02-18T16:04:58;101109.75;;;11.21;100.00
30967;BME280;17649;51.836;8.330;2023-02-18T16:08:09;101125.28;;;11.21;100.00
30967;BME280;17649;51.836;8.330;2023-02-18T16:11:12;101113.56;;;11.31;100.00
30967;BME280;17649;51.836;8.330;2023-02-18T16:14:33;101127.19;;;11.34;100.00
30967;BME280;17649;51.836;8.330;2023-02-18T16:17:45;101133.97;;;11.37;100.00
30967;BME280;17649;51.836;8.330;2023-02-18T16:21:04;101130.47;;;11.21;100.00
30967;BME280;17649;51.836;8.330;2023-02-18T17:31:43;101189.97;;;11.40;100.00
30967;BME280;17649;51.836;8.330;2023-02-18T17:34:46;101190.75;;;11.42;100.00
30967;BME280;17649;51.836;8.330;2023-02-18T17:37:47;101196.84;;;11.41;100.00
30967;BME280;17649;51.836;8.330;2023-02-18T17:44:00;101187.16;;;11.44;100.00
30967;BME280;17649;51.836;8.330;2023-02-18T17:47:00;101198.75;;;11.54;100.00
30967;BME280;17649;51.836;8.330;2023-02-18T17:50:01;101185.63;;;11.40;100.00
30967;BME280;17649;51.836;8.330;2023-02-18T17:53:01;101193.25;;;11.43;100.00
30967;BME280;17649;51.836;8.330;2023-02-18T17:56:02;101189.81;;;11.60;100.00
30967;BME280;17649;51.836;8.330;2023-02-18T17:59:02;101192.97;;;11.49;100.00
30967;BME280;17649;51.836;8.330;2023-02-18T18:02:02;101192.41;;;11.60;100.00
30967;BME280;17649;51.836;8.330;2023-02-18T18:05:04;101191.66;;;11.58;100.00
30967;BME280;17649;51.836;8.330;2023-02-18T18:08:07;101188.53;;;11.51;100.00
30967;BME280;17649;51.836;8.330;2023-02-18T18:11:12;101178.84;;;11.55;100.00
30967;BME280;17649;51.836;8.330;2023-02-18T18:14:16;101199.91;;;11.49;100.00
30967;BME280;17649;51.836;8.330;2023-02-18T18:17:24;101198.81;;;11.35;100.00
30967;BME280;17649;51.836;8.330;2023-02-18T18:20:27;101198.75;;;11.37;100.00
30967;BME280;17649;51.836;8.330;2023-02-18T18:23:28;101188.16;;;11.42;100.00
30967;BME280;17649;51.836;8.330;2023-02-18T18:26:28;101195.63;;;11.48;100.00
30967;BME280;17649;51.836;8.330;2023-02-18T18:29:34;101189.06;;;11.58;100.00
30967;BME280;17649;51.836;8.330;2023-02-18T18:32:38;101202.56;;;11.47;100.00
30967;BME280;17649;51.836;8.330;2023-02-18T18:35:38;101192.66;;;11.38;100.00
30967;BME280;17649;51.836;8.330;2023-02-18T18:38:39;101196.84;;;11.58;100.00
30967;BME280;17649;51.836;8.330;2023-02-18T18:41:39;101199.13;;;11.64;100.00
30967;BME280;17649;51.836;8.330;2023-02-18T18:44:39;101196.47;;;11.65;100.00
30967;BME280;17649;51.836;8.330;2023-02-18T18:47:40;101204.75;;;11.72;100.00
30967;BME280;17649;51.836;8.330;2023-02-18T18:50:40;101196.31;;;11.51;100.00
30967;BME280;17649;51.836;8.330;2023-02-18T18:53:41;101209.41;;;11.65;100.00
30967;BME280;17649;51.836;8.330;2023-02-18T18:56:42;101200.34;;;11.57;100.00
30967;BME280;17649;51.836;8.330;2023-02-18T18:59:42;101198.97;;;11.67;100.00
30967;BME280;17649;51.836;8.330;2023-02-18T19:02:43;101202.50;;;11.49;100.00
30967;BME280;17649;51.836;8.330;2023-02-18T19:05:44;101208.19;;;11.55;100.00
30967;BME280;17649;51.836;8.330;2023-02-18T19:08:45;101202.56;;;11.47;100.00
30967;BME280;17649;51.836;8.330;2023-02-18T19:11:46;101205.38;;;11.43;100.00
30967;BME280;17649;51.836;8.330;2023-02-18T19:14:47;101209.47;;;11.29;100.00
30967;BME280;17649;51.836;8.330;2023-02-18T19:17:51;101206.84;;;11.31;100.00
30967;BME280;17649;51.836;8.330;2023-02-18T19:20:52;101204.25;;;11.12;100.00
30967;BME280;17649;51.836;8.330;2023-02-18T19:23:52;101201.16;;;11.05;100.00
30967;BME280;17649;51.836;8.330;2023-02-18T19:26:53;101199.53;;;11.03;100.00